Bei Facebook empfehlenBei Twitter postenGoogle plusPinterest

Das Wetter im Erzgebirge am 13.08.2016

Wetter und Klima am 13.08.2016 Holzhau im Erzgebirge (630m ü.NN)
Letzte gemessene Temperatur und Uhrzeit der Messung23:45:00 Uhr12.50 °C
Temperatur (Maximum / Höchstwert) und Uhrzeit der Messung16:30:00 Uhr24.70 °C
Temperatur (Minimum / Tiefstwert) und Uhrzeit der Messung23:45:0012.50 °C
Errechneter Absolutwert der Temperaturschwankungen zwischen Tmin und Tmax des Tages12.20 K
Errechnete Tagesmitteltemperatur18.10833 °C
Gesamt - Niederschlag des Tages (in flüssiger Form)1.55 Liter / m²
Luftdruck (Maximum / Höchstwert) und Zeitpunkt der Messung00:00:00 Uhr1020.70 hPa
Luftdruck (Minimum / Tiefstwert) und Zeitpunkt der Messung20:15:00 Uhr1018.20 hPa
Errechneter Absolutwert der Luftdruckschwankungen des Tages2.50 hPa
Höchste gemessene Windgeschwindigkeit und Uhrzeit der Messung23:45:00 Uhr0.00 km/h
Errechnete Windhäufigkeit in Relation zu den Messwerten des Tages0.00000 %
Niedrigste Windkühle (Windchill) und Zeitpunkt der Messung23:45:00 Uhr12.50 °C
Taupunkt (Maximum / Höchstwert) und Uhrzeit der Messung10:00:00 Uhr18.40 °C
Taupunkt (Minimum / Tiefstwert) und Uhrzeit der Messung23:30:0010.70 °C
Anzahl der automatisch eingelesenen Messwerte 96

Detaillierte Wetter- und Klima- Messwerte für den 13.08.2016 in Holzhau im Erzgebirge (630m ü.NN)
ZeitTemperaturLuftdruckRel. LuftfeuchteWindWindrichtungWindchillTaupunktNiederschlag l/m²
23:45:0012.50 °C1018.40 hPa90.00 %10.90 °C1.55
23:30:0012.50 °C1018.40 hPa89.00 %10.70 °C1.55
23:15:0012.70 °C1018.50 hPa89.00 %10.90 °C1.55
23:00:0012.80 °C1018.50 hPa88.00 %10.90 °C1.55
22:45:0013.00 °C1018.60 hPa88.00 %11.10 °C1.55
22:30:0013.20 °C1018.40 hPa87.00 %11.10 °C1.55
22:15:0013.40 °C1018.50 hPa86.00 %11.10 °C1.55
22:00:0013.80 °C1018.50 hPa85.00 %11.30 °C1.55
21:45:0014.10 °C1018.50 hPa84.00 %11.40 °C1.55
21:30:0014.60 °C1018.60 hPa83.00 %11.70 °C1.55
21:15:0015.00 °C1018.40 hPa82.00 %12.00 °C1.55
21:00:0015.60 °C1018.40 hPa80.00 %12.20 °C1.55
20:45:0016.40 °C1018.40 hPa78.00 %12.60 °C1.55
20:30:0017.40 °C1018.30 hPa75.00 %12.90 °C1.55
20:15:0018.40 °C1018.20 hPa73.00 %13.50 °C1.55
20:00:0019.50 °C1018.40 hPa70.00 %13.90 °C1.55
19:45:0020.30 °C1018.40 hPa67.00 %14.00 °C1.55
19:30:0021.20 °C1018.40 hPa66.00 %14.60 °C1.55
19:15:0021.80 °C1018.40 hPa66.00 %15.20 °C1.55
19:00:0021.90 °C1018.60 hPa65.00 %15.00 °C1.55
18:45:0022.20 °C1018.50 hPa63.00 %14.80 °C1.55
18:30:0022.80 °C1018.50 hPa63.00 %15.40 °C1.55
18:15:0022.70 °C1018.60 hPa63.00 %15.30 °C1.55
18:00:0022.90 °C1018.80 hPa61.00 %15.00 °C1.55
17:45:0023.10 °C1018.70 hPa62.00 %15.40 °C1.55
17:30:0023.80 °C1018.70 hPa59.00 %15.30 °C1.55
17:15:0023.60 °C1018.60 hPa60.00 %15.40 °C1.55
17:00:0023.80 °C1018.60 hPa60.00 %15.60 °C1.55
16:45:0024.10 °C1018.60 hPa59.00 %15.60 °C1.55
16:30:0024.70 °C1018.70 hPa60.00 %16.40 °C1.55
16:15:0024.60 °C1018.80 hPa60.00 %16.30 °C1.55
16:00:0024.30 °C1018.70 hPa60.00 %16.00 °C1.55
15:45:0024.50 °C1018.70 hPa61.00 %16.50 °C1.55
15:30:0024.50 °C1018.90 hPa62.00 %16.70 °C1.55
15:15:0024.20 °C1018.80 hPa61.00 %16.20 °C1.55
15:00:0024.40 °C1018.70 hPa63.00 %16.90 °C1.55
14:45:0023.90 °C1018.80 hPa65.00 %16.90 °C1.55
14:30:0023.20 °C1019.00 hPa65.00 %16.30 °C1.55
14:15:0023.30 °C1019.10 hPa67.00 %16.80 °C1.55
14:00:0023.20 °C1019.00 hPa67.00 %16.70 °C1.55
13:45:0023.00 °C1019.20 hPa67.00 %16.50 °C1.55
13:30:0022.60 °C1019.20 hPa69.00 %16.60 °C1.55
13:15:0022.40 °C1019.30 hPa69.00 %16.40 °C1.55
13:00:0022.60 °C1019.40 hPa73.00 %17.50 °C1.55
12:45:0021.90 °C1019.40 hPa74.00 %17.10 °C1.55
12:30:0021.20 °C1019.60 hPa75.00 %16.60 °C1.55
12:15:0021.60 °C1019.70 hPa75.00 %17.00 °C1.55
12:00:0021.10 °C1019.80 hPa78.00 %17.10 °C1.55
11:45:0020.80 °C1019.90 hPa80.00 %17.20 °C1.55
11:30:0020.40 °C1019.90 hPa80.00 %16.80 °C1.55
11:15:0020.40 °C1020.10 hPa82.00 %17.20 °C1.55
11:00:0019.80 °C1020.30 hPa81.00 %16.40 °C1.55
10:45:0020.20 °C1020.20 hPa83.00 %17.20 °C1.55
10:30:0019.90 °C1020.20 hPa85.00 %17.30 °C1.55
10:15:0020.10 °C1020.10 hPa88.00 %18.00 °C1.55
10:00:0020.10 °C1020.40 hPa90.00 %18.40 °C1.55
09:45:0019.60 °C1020.40 hPa92.00 %18.30 °C1.55
09:30:0018.90 °C1020.40 hPa93.00 %17.70 °C1.55
09:15:0018.80 °C1020.20 hPa95.00 %18.00 °C1.55
09:00:0018.10 °C1020.40 hPa95.00 %17.30 °C1.55
08:45:0018.00 °C1020.50 hPa96.00 %17.40 °C1.55
08:30:0017.80 °C1020.30 hPa96.00 %17.20 °C1.55
08:15:0017.10 °C1020.30 hPa96.00 %16.50 °C1.55
08:00:0016.60 °C1020.40 hPa96.00 %16.00 °C1.55
07:45:0016.10 °C1020.30 hPa96.00 %15.50 °C1.55
07:30:0015.50 °C1020.30 hPa96.00 %14.90 °C1.55
07:15:0014.90 °C1020.30 hPa96.00 %14.30 °C1.55
07:00:0014.50 °C1020.30 hPa96.00 %13.90 °C1.55
06:45:0014.40 °C1020.20 hPa96.00 %13.80 °C1.55
06:30:0014.00 °C1020.20 hPa96.00 %13.40 °C1.55
06:15:0013.90 °C1020.20 hPa96.00 %13.30 °C1.55
06:00:0013.90 °C1020.20 hPa96.00 %13.30 °C1.55
05:45:0014.10 °C1020.20 hPa96.00 %13.50 °C1.55
05:30:0014.20 °C1020.10 hPa96.00 %13.60 °C1.55
05:15:0014.30 °C1020.10 hPa96.00 %13.70 °C1.55
05:00:0014.30 °C1020.10 hPa96.00 %13.70 °C1.55
04:45:0014.30 °C1020.30 hPa96.00 %13.70 °C1.55
04:30:0014.40 °C1020.30 hPa96.00 %13.80 °C1.55
04:15:0014.40 °C1020.40 hPa96.00 %13.80 °C1.55
04:00:0014.40 °C1020.30 hPa96.00 %13.80 °C1.55
03:45:0014.40 °C1020.30 hPa96.00 %13.80 °C1.55
03:30:0014.40 °C1020.30 hPa96.00 %13.80 °C1.55
03:15:0014.40 °C1020.40 hPa96.00 %13.80 °C1.03
03:00:0014.40 °C1020.40 hPa96.00 %13.80 °C1.03
02:45:0014.40 °C1020.40 hPa95.00 %13.60 °C0.52
02:30:0014.40 °C1020.30 hPa95.00 %13.60 °C0.52
02:15:0014.40 °C1020.40 hPa95.00 %13.60 °C0.52
02:00:0014.40 °C1020.40 hPa95.00 %13.60 °C0.52
01:45:0014.40 °C1020.40 hPa95.00 %13.60 °C0.52
01:30:0014.40 °C1020.30 hPa95.00 %13.60 °C0.52
01:15:0014.40 °C1020.50 hPa95.00 %13.60 °C0.52
01:00:0014.40 °C1020.40 hPa95.00 %13.60 °C0.52
00:45:0014.30 °C1020.40 hPa95.00 %13.50 °C0.52
00:30:0014.30 °C1020.60 hPa95.00 %13.50 °C 
00:15:0014.30 °C1020.50 hPa94.00 %13.30 °C 
00:00:0014.20 °C1020.70 hPa94.00 %13.20 °C 

Permanenter Link zu dieser Seite: Wetter im Erzgebirge am 13.08.2016
Performance-Info: Die Erstellung der Seite / Statistik(en) / Tabelle(n) erforderte 5 Datenbankserver-Abfrage(n) und dauerte 106 Millisekunden. (Dieser Messwert ist von der Gesamt-Auslastung des Servers abhängig.)
Erzgebirge - Wetter | Erzgebirge - Wetter (Mobilgeräte) | Komplette Klimadatenbank